Time,TemperatureF,DewpointF,PressureIn,WindDirection,WindDirectionDegrees,WindSpeedMPH,WindSpeedGustMPH,Humidity,HourlyPrecipIn,Conditions,Clouds,dailyrainin,SoftwareType,DateUTC
2013-04-13 00:00:00,67.0,50.8,29.73,SW,236,0.0,1.0,56,0.00,,,0.76,Wunderground v.1.15,2013-04-13 04:00:00,
2013-04-13 00:05:00,66.8,50.1,29.74,SW,236,0.0,1.0,55,0.00,,,0.00,Wunderground v.1.15,2013-04-13 04:05:00,
2013-04-13 00:10:00,66.7,50.0,29.74,SW,236,0.0,1.0,55,0.00,,,0.00,Wunderground v.1.15,2013-04-13 04:10:00,
2013-04-13 00:15:00,66.5,49.8,29.74,SW,236,0.0,1.0,55,0.00,,,0.00,Wunderground v.1.15,2013-04-13 04:15:00,
2013-04-13 00:20:00,66.4,49.7,29.74,SW,236,0.0,1.0,55,0.00,,,0.00,Wunderground v.1.15,2013-04-13 04:20:00,
2013-04-13 00:25:00,66.1,49.5,29.74,SW,236,0.0,1.0,55,0.00,,,0.00,Wunderground v.1.15,2013-04-13 04:25:00,
2013-04-13 00:30:00,65.9,48.8,29.74,SW,236,0.0,1.0,54,0.00,,,0.00,Wunderground v.1.15,2013-04-13 04:30:00,
2013-04-13 00:40:00,65.6,48.5,29.74,SW,236,0.0,1.0,54,0.00,,,0.00,Wunderground v.1.15,2013-04-13 04:40:00,
2013-04-13 00:45:00,65.4,48.3,29.75,SW,236,0.0,1.0,54,0.00,,,0.00,Wunderground v.1.15,2013-04-13 04:45:00,
2013-04-13 00:50:00,65.3,48.7,29.75,SW,236,0.0,1.0,55,0.00,,,0.00,Wunderground v.1.15,2013-04-13 04:50:00,
2013-04-13 00:55:00,65.2,48.1,29.75,SW,236,0.0,1.0,54,0.00,,,0.00,Wunderground v.1.15,2013-04-13 04:55:00,
2013-04-13 01:00:00,65.0,47.9,29.75,SW,236,0.0,1.0,54,0.00,,,0.00,Wunderground v.1.15,2013-04-13 05:00:00,
2013-04-13 01:10:00,64.8,47.8,29.76,SW,236,0.0,1.0,54,0.00,,,0.00,Wunderground v.1.15,2013-04-13 05:10:00,
2013-04-13 01:15:00,64.7,47.7,29.76,SW,236,0.0,1.0,54,0.00,,,0.00,Wunderground v.1.15,2013-04-13 05:15:00,
2013-04-13 01:20:00,64.6,47.6,29.76,SW,236,0.0,1.0,54,0.00,,,0.00,Wunderground v.1.15,2013-04-13 05:20:00,
2013-04-13 01:25:00,64.5,47.5,29.77,SW,236,0.0,1.0,54,0.00,,,0.00,Wunderground v.1.15,2013-04-13 05:25:00,
2013-04-13 01:30:00,64.4,47.9,29.77,SW,236,0.0,1.0,55,0.00,,,0.00,Wunderground v.1.15,2013-04-13 05:30:00,
2013-04-13 01:40:00,64.2,47.7,29.77,SW,236,0.0,1.0,55,0.00,,,0.00,Wunderground v.1.15,2013-04-13 05:40:00,
2013-04-13 01:45:00,64.1,46.6,29.76,NNE,16,0.0,1.0,53,0.00,,,0.00,Wunderground v.1.15,2013-04-13 05:45:00,
2013-04-13 01:50:00,64.0,46.5,29.77,North,5,0.0,1.0,53,0.00,,,0.00,Wunderground v.1.15,2013-04-13 05:50:00,
2013-04-13 01:55:00,64.0,46.5,29.77,North,5,0.0,1.0,53,0.00,,,0.00,Wunderground v.1.15,2013-04-13 05:55:00,
2013-04-13 02:00:00,63.9,45.9,29.77,North,360,0.0,1.0,52,0.00,,,0.00,Wunderground v.1.15,2013-04-13 06:00:00,
2013-04-13 02:10:00,63.6,46.1,29.77,North,5,0.0,1.0,53,0.00,,,0.00,Wunderground v.1.15,2013-04-13 06:10:00,
2013-04-13 02:15:00,63.4,46.0,29.77,North,360,0.0,2.0,53,0.00,,,0.00,Wunderground v.1.15,2013-04-13 06:15:00,
2013-04-13 02:20:00,63.2,45.3,29.77,North,5,0.0,1.0,52,0.00,,,0.00,Wunderground v.1.15,2013-04-13 06:20:00,
2013-04-13 02:25:00,63.1,45.7,29.77,North,10,0.0,2.0,53,0.00,,,0.00,Wunderground v.1.15,2013-04-13 06:25:00,
2013-04-13 02:30:00,62.9,45.5,29.77,North,10,0.0,1.0,53,0.00,,,0.00,Wunderground v.1.15,2013-04-13 06:30:00,
2013-04-13 02:40:00,62.6,45.7,29.77,North,10,0.0,1.0,54,0.00,,,0.00,Wunderground v.1.15,2013-04-13 06:40:00,
2013-04-13 02:45:00,62.5,45.1,29.78,North,10,0.0,1.0,53,0.00,,,0.00,Wunderground v.1.15,2013-04-13 06:45:00,
2013-04-13 02:55:00,62.1,44.8,29.78,North,10,0.0,1.0,53,0.00,,,0.00,Wunderground v.1.15,2013-04-13 06:55:00,
2013-04-13 03:05:00,61.8,45.0,29.78,North,10,0.0,1.0,54,0.00,,,0.00,Wunderground v.1.15,2013-04-13 07:05:00,
2013-04-13 03:10:00,61.6,44.3,29.78,North,10,0.0,1.0,53,0.00,,,0.00,Wunderground v.1.15,2013-04-13 07:10:00,
2013-04-13 03:20:00,61.4,45.1,29.79,North,10,0.0,1.0,55,0.00,,,0.00,Wunderground v.1.15,2013-04-13 07:20:00,
2013-04-13 03:25:00,61.2,44.9,29.79,North,10,0.0,1.0,55,0.00,,,0.00,Wunderground v.1.15,2013-04-13 07:25:00,
2013-04-13 03:30:00,61.1,45.3,29.79,North,10,0.0,1.0,56,0.00,,,0.00,Wunderground v.1.15,2013-04-13 07:30:00,
2013-04-13 03:35:00,60.8,45.0,29.79,North,10,0.0,1.0,56,0.00,,,0.00,Wunderground v.1.15,2013-04-13 07:35:00,
2013-04-13 03:40:00,60.7,44.9,29.80,North,10,0.0,1.0,56,0.00,,,0.00,Wunderground v.1.15,2013-04-13 07:40:00,
2013-04-13 03:45:00,60.5,44.7,29.80,North,10,0.0,1.0,56,0.00,,,0.00,Wunderground v.1.15,2013-04-13 07:45:00,
2013-04-13 03:55:00,60.0,44.7,29.80,North,10,0.0,1.0,57,0.00,,,0.00,Wunderground v.1.15,2013-04-13 07:55:00,
2013-04-13 04:00:00,59.8,44.5,29.80,North,10,0.0,1.0,57,0.00,,,0.00,Wunderground v.1.15,2013-04-13 08:00:00,
2013-04-13 04:05:00,59.7,45.8,29.80,North,10,0.0,1.0,60,0.00,,,0.00,Wunderground v.1.15,2013-04-13 08:05:00,
2013-04-13 04:15:00,59.3,45.8,29.81,North,10,0.0,1.0,61,0.00,,,0.00,Wunderground v.1.15,2013-04-13 08:15:00,
2013-04-13 04:25:00,59.0,46.0,29.81,North,10,0.0,1.0,62,0.00,,,0.00,Wunderground v.1.15,2013-04-13 08:25:00,
2013-04-13 04:35:00,58.6,46.0,29.82,North,10,0.0,1.0,63,0.00,,,0.00,Wunderground v.1.15,2013-04-13 08:35:00,
2013-04-13 04:40:00,58.4,45.8,29.82,North,10,0.0,1.0,63,0.00,,,0.00,Wunderground v.1.15,2013-04-13 08:40:00,
2013-04-13 04:45:00,58.1,45.6,29.82,North,10,0.0,1.0,63,0.00,,,0.00,Wunderground v.1.15,2013-04-13 08:45:00,
2013-04-13 04:55:00,57.5,45.4,29.82,North,10,0.0,1.0,64,0.00,,,0.00,Wunderground v.1.15,2013-04-13 08:55:00,
2013-04-13 05:05:00,57.1,45.0,29.82,North,10,0.0,1.0,64,0.00,,,0.00,Wunderground v.1.15,2013-04-13 09:05:00,
2013-04-13 05:10:00,57.0,44.9,29.82,North,10,0.0,1.0,64,0.00,,,0.00,Wunderground v.1.15,2013-04-13 09:10:00,
2013-04-13 05:20:00,56.7,44.7,29.83,North,10,0.0,1.0,64,0.00,,,0.00,Wunderground v.1.15,2013-04-13 09:20:00,
2013-04-13 05:30:00,56.5,44.9,29.83,North,10,0.0,1.0,65,0.00,,,0.00,Wunderground v.1.15,2013-04-13 09:30:00,
2013-04-13 05:40:00,56.3,45.1,29.84,North,10,0.0,1.0,66,0.00,,,0.00,Wunderground v.1.15,2013-04-13 09:40:00,
2013-04-13 05:45:00,56.2,45.0,29.84,North,10,0.0,1.0,66,0.00,,,0.00,Wunderground v.1.15,2013-04-13 09:45:00,
2013-04-13 05:50:00,56.0,44.8,29.84,North,10,0.0,1.0,66,0.00,,,0.00,Wunderground v.1.15,2013-04-13 09:50:00,
2013-04-13 06:00:00,55.8,45.0,29.85,North,10,0.0,1.0,67,0.00,,,0.00,Wunderground v.1.15,2013-04-13 10:00:00,
2013-04-13 06:05:00,55.7,44.9,29.85,North,10,0.0,1.0,67,0.00,,,0.00,Wunderground v.1.15,2013-04-13 10:05:00,
2013-04-13 06:10:00,55.6,44.8,29.86,North,10,0.0,1.0,67,0.00,,,0.00,Wunderground v.1.15,2013-04-13 10:10:00,
2013-04-13 06:15:00,55.4,45.0,29.86,North,10,0.0,1.0,68,0.00,,,0.00,Wunderground v.1.15,2013-04-13 10:15:00,
2013-04-13 06:20:00,55.4,45.0,29.86,North,10,0.0,1.0,68,0.00,,,0.00,Wunderground v.1.15,2013-04-13 10:20:00,
2013-04-13 06:25:00,55.2,44.8,29.87,North,10,0.0,1.0,68,0.00,,,0.00,Wunderground v.1.15,2013-04-13 10:25:00,
2013-04-13 06:35:00,54.9,45.3,29.87,North,10,0.0,1.0,70,0.00,,,0.00,Wunderground v.1.15,2013-04-13 10:35:00,
2013-04-13 06:45:00,54.5,45.3,29.88,North,10,0.0,1.0,71,0.00,,,0.00,Wunderground v.1.15,2013-04-13 10:45:00,
2013-04-13 06:55:00,54.1,45.3,29.89,North,10,0.0,1.0,72,0.00,,,0.00,Wunderground v.1.15,2013-04-13 10:55:00,
2013-04-13 07:00:00,53.8,45.0,29.89,North,10,0.0,1.0,72,0.00,,,0.00,Wunderground v.1.15,2013-04-13 11:00:00,
2013-04-13 07:10:00,53.4,45.0,29.90,North,10,0.0,1.0,73,0.00,,,0.00,Wunderground v.1.15,2013-04-13 11:10:00,
2013-04-13 07:15:00,53.3,44.9,29.90,North,10,0.0,1.0,73,0.00,,,0.00,Wunderground v.1.15,2013-04-13 11:15:00,
2013-04-13 07:25:00,53.0,44.9,29.90,North,10,0.0,1.0,74,0.00,,,0.00,Wunderground v.1.15,2013-04-13 11:25:00,
2013-04-13 07:30:00,52.9,45.2,29.91,North,10,0.0,1.0,75,0.00,,,0.00,Wunderground v.1.15,2013-04-13 11:30:00,
2013-04-13 07:40:00,52.8,45.4,29.91,North,10,0.0,1.0,76,0.00,,,0.00,Wunderground v.1.15,2013-04-13 11:40:00,
2013-04-13 07:45:00,52.8,45.1,29.91,North,10,0.0,1.0,75,0.00,,,0.00,Wunderground v.1.15,2013-04-13 11:45:00,
2013-04-13 07:50:00,52.8,45.1,29.92,North,10,0.0,1.0,75,0.00,,,0.00,Wunderground v.1.15,2013-04-13 11:50:00,
2013-04-13 07:55:00,52.8,44.7,29.92,North,10,0.0,1.0,74,0.00,,,0.00,Wunderground v.1.15,2013-04-13 11:55:00,
2013-04-13 08:00:00,53.0,44.6,29.92,North,10,0.0,1.0,73,0.00,,,0.00,Wunderground v.1.15,2013-04-13 12:00:00,
2013-04-13 08:05:00,53.2,44.4,29.92,North,10,0.0,1.0,72,0.00,,,0.00,Wunderground v.1.15,2013-04-13 12:05:00,
2013-04-13 08:15:00,53.9,45.1,29.92,NNE,22,0.0,1.0,72,0.00,,,0.00,Wunderground v.1.15,2013-04-13 12:15:00,
2013-04-13 08:20:00,54.3,44.7,29.92,NNE,22,0.0,1.0,70,0.00,,,0.00,Wunderground v.1.15,2013-04-13 12:20:00,
2013-04-13 08:30:00,55.3,44.9,29.93,NNE,21,0.0,1.0,68,0.00,,,0.00,Wunderground v.1.15,2013-04-13 12:30:00,
2013-04-13 08:35:00,56.2,45.4,29.93,NNE,21,0.0,1.0,67,0.00,,,0.00,Wunderground v.1.15,2013-04-13 12:35:00,
2013-04-13 08:45:00,58.1,45.1,29.93,NNE,21,0.0,1.0,62,0.00,,,0.00,Wunderground v.1.15,2013-04-13 12:45:00,
2013-04-13 08:55:00,59.0,45.6,29.93,NNW,341,0.0,1.0,61,0.00,,,0.00,Wunderground v.1.15,2013-04-13 12:55:00,
2013-04-13 09:00:00,59.4,45.5,29.93,NNW,341,0.0,1.0,60,0.00,,,0.00,Wunderground v.1.15,2013-04-13 13:00:00,
2013-04-13 09:05:00,59.6,44.3,29.93,North,355,0.0,1.0,57,0.00,,,0.00,Wunderground v.1.15,2013-04-13 13:05:00,
2013-04-13 09:10:00,60.1,44.3,29.93,North,351,0.0,1.0,56,0.00,,,0.00,Wunderground v.1.15,2013-04-13 13:10:00,
2013-04-13 09:25:00,61.3,43.0,29.93,ENE,59,0.0,1.0,51,0.00,,,0.00,Wunderground v.1.15,2013-04-13 13:25:00,
2013-04-13 09:35:00,61.9,43.6,29.93,NW,323,0.0,2.0,51,0.00,,,0.00,Wunderground v.1.15,2013-04-13 13:35:00,
2013-04-13 09:40:00,61.8,42.4,29.93,NE,47,1.0,1.0,49,0.00,,,0.00,Wunderground v.1.15,2013-04-13 13:40:00,
2013-04-13 09:45:00,61.9,43.0,29.93,ENE,63,1.0,1.0,50,0.00,,,0.00,Wunderground v.1.15,2013-04-13 13:45:00,
2013-04-13 09:55:00,62.5,43.1,29.93,ESE,111,0.0,1.0,49,0.00,,,0.00,Wunderground v.1.15,2013-04-13 13:55:00,
2013-04-13 10:00:00,62.8,43.3,29.94,East,86,0.0,1.0,49,0.00,,,0.00,Wunderground v.1.15,2013-04-13 14:00:00,
2013-04-13 10:05:00,62.9,42.4,29.94,North,355,0.0,1.0,47,0.00,,,0.00,Wunderground v.1.15,2013-04-13 14:05:00,
2013-04-13 10:10:00,63.1,43.1,29.94,NNW,327,1.0,1.0,48,0.00,,,0.00,Wunderground v.1.15,2013-04-13 14:10:00,
2013-04-13 10:15:00,63.3,42.7,29.94,North,355,0.0,1.0,47,0.00,,,0.00,Wunderground v.1.15,2013-04-13 14:15:00,
2013-04-13 10:25:00,64.0,42.8,29.94,East,88,1.0,1.0,46,0.00,,,0.00,Wunderground v.1.15,2013-04-13 14:25:00,
2013-04-13 10:30:00,64.3,44.2,29.94,East,94,1.0,1.0,48,0.00,,,0.00,Wunderground v.1.15,2013-04-13 14:30:00,
2013-04-13 10:35:00,64.2,43.0,29.94,ESE,117,1.0,1.0,46,0.00,,,0.00,Wunderground v.1.15,2013-04-13 14:35:00,
2013-04-13 10:40:00,64.4,42.6,29.95,NNE,19,1.0,2.0,45,0.00,,,0.00,Wunderground v.1.15,2013-04-13 14:40:00,
2013-04-13 10:45:00,64.2,41.2,29.94,ESE,121,1.0,2.0,43,0.00,,,0.00,Wunderground v.1.15,2013-04-13 14:45:00,
2013-04-13 10:50:00,64.3,42.5,29.95,ESE,105,0.0,1.0,45,0.00,,,0.00,Wunderground v.1.15,2013-04-13 14:50:00,
2013-04-13 11:00:00,64.4,43.7,29.95,ESE,103,1.0,1.0,47,0.00,,,0.00,Wunderground v.1.15,2013-04-13 15:00:00,
2013-04-13 11:05:00,64.4,42.6,29.95,NE,44,1.0,1.0,45,0.00,,,0.00,Wunderground v.1.15,2013-04-13 15:05:00,
2013-04-13 11:10:00,65.0,43.7,29.95,NE,55,1.0,1.0,46,0.00,,,0.00,Wunderground v.1.15,2013-04-13 15:10:00,
2013-04-13 11:15:00,65.0,43.1,29.94,NNE,18,0.0,1.0,45,0.00,,,0.00,Wunderground v.1.15,2013-04-13 15:15:00,
2013-04-13 11:20:00,65.7,43.8,29.94,North,360,0.0,1.0,45,0.00,,,0.00,Wunderground v.1.15,2013-04-13 15:20:00,
2013-04-13 11:25:00,65.7,43.2,29.94,North,360,0.0,1.0,44,0.00,,,0.00,Wunderground v.1.15,2013-04-13 15:25:00,
2013-04-13 11:30:00,65.8,43.9,29.94,North,5,0.0,1.0,45,0.00,,,0.00,Wunderground v.1.15,2013-04-13 15:30:00,
2013-04-13 11:35:00,66.0,42.9,29.94,North,5,0.0,1.0,43,0.00,,,0.00,Wunderground v.1.15,2013-04-13 15:35:00,
2013-04-13 11:40:00,66.2,44.2,29.94,North,360,0.0,1.0,45,0.00,,,0.00,Wunderground v.1.15,2013-04-13 15:40:00,
2013-04-13 11:45:00,66.1,42.9,29.94,North,5,0.0,1.0,43,0.00,,,0.00,Wunderground v.1.15,2013-04-13 15:45:00,
2013-04-13 11:50:00,66.2,43.6,29.94,East,91,0.0,1.0,44,0.00,,,0.00,Wunderground v.1.15,2013-04-13 15:50:00,
2013-04-13 11:55:00,66.3,43.1,29.94,East,91,0.0,1.0,43,0.00,,,0.00,Wunderground v.1.15,2013-04-13 15:55:00,
2013-04-13 12:05:00,66.4,43.8,29.94,SSE,159,0.0,1.0,44,0.00,,,0.00,Wunderground v.1.15,2013-04-13 16:05:00,
2013-04-13 12:10:00,67.1,43.8,29.93,NNW,340,0.0,1.0,43,0.00,,,0.00,Wunderground v.1.15,2013-04-13 16:10:00,
2013-04-13 12:15:00,67.1,43.2,29.93,ENE,71,0.0,1.0,42,0.00,,,0.00,Wunderground v.1.15,2013-04-13 16:15:00,
2013-04-13 12:20:00,66.8,43.0,29.93,East,85,0.0,1.0,42,0.00,,,0.00,Wunderground v.1.15,2013-04-13 16:20:00,
2013-04-13 12:25:00,67.4,45.3,29.93,East,85,0.0,1.0,45,0.00,,,0.00,Wunderground v.1.15,2013-04-13 16:25:00,
2013-04-13 12:35:00,67.6,44.9,29.93,ENE,58,0.0,1.0,44,0.00,,,0.00,Wunderground v.1.15,2013-04-13 16:35:00,
2013-04-13 12:45:00,67.9,44.0,29.93,NE,42,0.0,1.0,42,0.00,,,0.00,Wunderground v.1.15,2013-04-13 16:45:00,
2013-04-13 12:55:00,69.4,43.4,29.93,North,355,0.0,1.0,39,0.00,,,0.00,Wunderground v.1.15,2013-04-13 16:55:00,
2013-04-13 13:00:00,69.9,45.8,29.93,NNW,346,0.0,1.0,42,0.00,,,0.00,Wunderground v.1.15,2013-04-13 17:00:00,
2013-04-13 13:10:00,69.9,44.5,29.93,NNE,12,0.0,1.0,40,0.00,,,0.00,Wunderground v.1.15,2013-04-13 17:10:00,
2013-04-13 13:15:00,69.2,46.4,29.93,NE,36,0.0,1.0,44,0.00,,,0.00,Wunderground v.1.15,2013-04-13 17:15:00,
2013-04-13 13:20:00,69.4,44.7,29.92,NE,36,0.0,1.0,41,0.00,,,0.00,Wunderground v.1.15,2013-04-13 17:20:00,
2013-04-13 13:25:00,70.1,44.6,29.92,ENE,75,0.0,1.0,40,0.00,,,0.00,Wunderground v.1.15,2013-04-13 17:25:00,
2013-04-13 13:30:00,70.6,45.1,29.92,ENE,76,0.0,1.0,40,0.00,,,0.00,Wunderground v.1.15,2013-04-13 17:30:00,
2013-04-13 13:40:00,71.1,46.2,29.92,ENE,67,0.0,1.0,41,0.00,,,0.00,Wunderground v.1.15,2013-04-13 17:40:00,
2013-04-13 13:50:00,72.2,46.5,29.92,WNW,303,0.0,1.0,40,0.00,,,0.00,Wunderground v.1.15,2013-04-13 17:50:00,
2013-04-13 14:00:00,73.2,46.8,29.92,ESE,115,0.0,1.0,39,0.00,,,0.00,Wunderground v.1.15,2013-04-13 18:00:00,
2013-04-13 14:10:00,73.5,47.7,29.91,ENE,77,0.0,1.0,40,0.00,,,0.00,Wunderground v.1.15,2013-04-13 18:10:00,
2013-04-13 14:15:00,73.5,45.6,29.92,ENE,76,0.0,1.0,37,0.00,,,0.00,Wunderground v.1.15,2013-04-13 18:15:00,
2013-04-13 14:20:00,73.1,44.5,29.91,North,5,0.0,1.0,36,0.00,,,0.00,Wunderground v.1.15,2013-04-13 18:20:00,
2013-04-13 14:30:00,74.1,46.2,29.91,South,183,0.0,1.0,37,0.00,,,0.00,Wunderground v.1.15,2013-04-13 18:30:00,
2013-04-13 14:40:00,74.3,44.9,29.91,ENE,59,0.0,0.0,35,0.00,,,0.00,Wunderground v.1.15,2013-04-13 18:40:00,
2013-04-13 14:45:00,74.2,45.5,29.91,South,173,0.0,0.0,36,0.00,,,0.00,Wunderground v.1.15,2013-04-13 18:45:00,
2013-04-13 14:50:00,74.5,45.8,29.90,NW,324,0.0,0.0,36,0.00,,,0.00,Wunderground v.1.15,2013-04-13 18:50:00,
2013-04-13 14:55:00,74.6,46.6,29.90,SW,225,0.0,0.0,37,0.00,,,0.00,Wunderground v.1.15,2013-04-13 18:55:00,
2013-04-13 15:00:00,74.5,46.5,29.90,SE,133,0.0,0.0,37,0.00,,,0.00,Wunderground v.1.15,2013-04-13 19:00:00,
2013-04-13 15:05:00,75.1,46.3,29.90,SW,223,0.0,0.0,36,0.00,,,0.00,Wunderground v.1.15,2013-04-13 19:05:00,
2013-04-13 15:10:00,75.2,46.4,29.90,South,180,0.0,0.0,36,0.00,,,0.00,Wunderground v.1.15,2013-04-13 19:10:00,
2013-04-13 15:20:00,74.6,45.9,29.89,North,5,1.0,1.0,36,0.00,,,0.00,Wunderground v.1.15,2013-04-13 19:20:00,
2013-04-13 15:25:00,74.4,45.0,29.89,North,355,1.0,1.0,35,0.00,,,0.00,Wunderground v.1.15,2013-04-13 19:25:00,
2013-04-13 15:30:00,74.7,46.0,29.89,North,355,0.0,0.0,36,0.00,,,0.00,Wunderground v.1.15,2013-04-13 19:30:00,
2013-04-13 15:35:00,74.7,44.5,29.88,North,5,0.0,0.0,34,0.00,,,0.00,Wunderground v.1.15,2013-04-13 19:35:00,
2013-04-13 15:40:00,75.2,46.4,29.88,North,5,0.0,2.0,36,0.00,,,0.00,Wunderground v.1.15,2013-04-13 19:40:00,
2013-04-13 15:50:00,75.7,46.1,29.88,East,99,0.0,2.0,35,0.00,,,0.00,Wunderground v.1.15,2013-04-13 19:50:00,
2013-04-13 15:55:00,75.4,45.8,29.87,SE,139,0.0,2.0,35,0.00,,,0.00,Wunderground v.1.15,2013-04-13 19:55:00,
2013-04-13 16:05:00,75.3,44.2,29.87,North,360,0.0,2.0,33,0.00,,,0.00,Wunderground v.1.15,2013-04-13 20:05:00,
2013-04-13 16:10:00,75.3,45.0,29.87,North,360,1.0,2.0,34,0.00,,,0.00,Wunderground v.1.15,2013-04-13 20:10:00,
2013-04-13 16:20:00,75.2,46.4,29.87,North,355,0.0,2.0,36,0.00,,,0.00,Wunderground v.1.15,2013-04-13 20:20:00,
2013-04-13 16:30:00,75.7,43.7,29.87,North,355,0.0,2.0,32,0.00,,,0.00,Wunderground v.1.15,2013-04-13 20:30:00,
2013-04-13 16:35:00,75.1,44.8,29.87,North,360,0.0,2.0,34,0.00,,,0.00,Wunderground v.1.15,2013-04-13 20:35:00,
2013-04-13 16:40:00,74.9,43.0,29.87,North,360,0.0,2.0,32,0.00,,,0.00,Wunderground v.1.15,2013-04-13 20:40:00,
2013-04-13 16:45:00,74.9,43.8,29.87,NNE,15,0.0,3.0,33,0.00,,,0.00,Wunderground v.1.15,2013-04-13 20:45:00,
2013-04-13 16:55:00,74.6,43.6,29.87,North,360,1.0,2.0,33,0.00,,,0.00,Wunderground v.1.15,2013-04-13 20:55:00,
2013-04-13 17:00:00,74.8,43.0,29.87,North,9,0.0,2.0,32,0.00,,,0.00,Wunderground v.1.15,2013-04-13 21:00:00,
2013-04-13 17:05:00,75.1,44.0,29.87,SE,126,0.0,2.0,33,0.00,,,0.00,Wunderground v.1.15,2013-04-13 21:05:00,
2013-04-13 17:10:00,75.1,44.0,29.87,ENE,75,0.0,2.0,33,0.00,,,0.00,Wunderground v.1.15,2013-04-13 21:10:00,
2013-04-13 17:15:00,74.9,43.8,29.87,SSW,196,0.0,2.0,33,0.00,,,0.00,Wunderground v.1.15,2013-04-13 21:15:00,
2013-04-13 17:20:00,74.9,43.0,29.87,South,170,0.0,2.0,32,0.00,,,0.00,Wunderground v.1.15,2013-04-13 21:20:00,
2013-04-13 17:25:00,75.0,43.9,29.87,South,171,0.0,2.0,33,0.00,,,0.00,Wunderground v.1.15,2013-04-13 21:25:00,
2013-04-13 17:30:00,75.1,43.2,29.87,South,190,0.0,2.0,32,0.00,,,0.00,Wunderground v.1.15,2013-04-13 21:30:00,
2013-04-13 17:35:00,74.7,43.7,29.87,South,190,0.0,2.0,33,0.00,,,0.00,Wunderground v.1.15,2013-04-13 21:35:00,
2013-04-13 17:40:00,74.6,43.6,29.87,South,190,0.0,2.0,33,0.00,,,0.00,Wunderground v.1.15,2013-04-13 21:40:00,
2013-04-13 17:50:00,74.8,43.0,29.87,North,360,0.0,2.0,32,0.00,,,0.00,Wunderground v.1.15,2013-04-13 21:50:00,
2013-04-13 17:55:00,74.8,43.8,29.87,North,5,0.0,2.0,33,0.00,,,0.00,Wunderground v.1.15,2013-04-13 21:55:00,
2013-04-13 18:00:00,74.7,42.0,29.87,North,9,0.0,2.0,31,0.00,,,0.00,Wunderground v.1.15,2013-04-13 22:00:00,
2013-04-13 18:05:00,74.4,44.2,29.88,North,11,0.0,2.0,34,0.00,,,0.00,Wunderground v.1.15,2013-04-13 22:05:00,
2013-04-13 18:10:00,74.5,43.5,29.87,East,101,0.0,2.0,33,0.00,,,0.00,Wunderground v.1.15,2013-04-13 22:10:00,
2013-04-13 18:15:00,74.6,42.8,29.87,East,101,0.0,2.0,32,0.00,,,0.00,Wunderground v.1.15,2013-04-13 22:15:00,
2013-04-13 18:20:00,74.6,43.6,29.87,East,101,0.0,2.0,33,0.00,,,0.00,Wunderground v.1.15,2013-04-13 22:20:00,
2013-04-13 18:25:00,74.5,44.3,29.87,East,101,0.0,2.0,34,0.00,,,0.00,Wunderground v.1.15,2013-04-13 22:25:00,
2013-04-13 18:30:00,74.3,44.1,29.88,East,101,0.0,2.0,34,0.00,,,0.00,Wunderground v.1.15,2013-04-13 22:30:00,
2013-04-13 18:35:00,74.1,43.9,29.88,SE,140,0.0,2.0,34,0.00,,,0.00,Wunderground v.1.15,2013-04-13 22:35:00,
2013-04-13 18:40:00,74.0,44.6,29.88,SE,140,0.0,2.0,35,0.00,,,0.00,Wunderground v.1.15,2013-04-13 22:40:00,
2013-04-13 18:45:00,74.0,43.8,29.88,SE,140,0.0,2.0,34,0.00,,,0.00,Wunderground v.1.15,2013-04-13 22:45:00,
2013-04-13 18:50:00,74.0,43.8,29.88,SE,140,0.0,2.0,34,0.00,,,0.00,Wunderground v.1.15,2013-04-13 22:50:00,
2013-04-13 19:00:00,73.9,46.0,29.88,SE,140,0.0,2.0,37,0.00,,,0.00,Wunderground v.1.15,2013-04-13 23:00:00,
2013-04-13 19:05:00,73.8,45.9,29.88,SE,140,0.0,2.0,37,0.00,,,0.00,Wunderground v.1.15,2013-04-13 23:05:00,
2013-04-13 19:10:00,73.7,46.5,29.88,SE,140,0.0,2.0,38,0.00,,,0.00,Wunderground v.1.15,2013-04-13 23:10:00,
2013-04-13 19:20:00,73.4,46.2,29.89,SE,141,0.0,2.0,38,0.00,,,0.00,Wunderground v.1.15,2013-04-13 23:20:00,
2013-04-13 19:25:00,73.3,47.5,29.89,SE,141,0.0,2.0,40,0.00,,,0.00,Wunderground v.1.15,2013-04-13 23:25:00,
2013-04-13 19:30:00,73.1,47.3,29.89,SE,141,0.0,2.0,40,0.00,,,0.00,Wunderground v.1.15,2013-04-13 23:30:00,
2013-04-13 19:35:00,72.8,47.7,29.89,SE,141,0.0,2.0,41,0.00,,,0.00,Wunderground v.1.15,2013-04-13 23:35:00,
2013-04-13 19:40:00,72.4,48.6,29.89,SE,141,0.0,2.0,43,0.00,,,0.00,Wunderground v.1.15,2013-04-13 23:40:00,
2013-04-13 19:45:00,72.1,47.7,29.90,SE,141,0.0,2.0,42,0.00,,,0.00,Wunderground v.1.15,2013-04-13 23:45:00,
2013-04-13 19:50:00,71.7,48.0,29.90,SE,142,0.0,2.0,43,0.00,,,0.00,Wunderground v.1.15,2013-04-13 23:50:00,
2013-04-13 20:00:00,71.0,48.6,29.91,SE,142,0.0,2.0,45,0.00,,,0.00,Wunderground v.1.15,2013-04-14 00:00:00,
2013-04-13 20:05:00,70.5,48.7,29.90,SE,142,0.0,2.0,46,0.00,,,0.00,Wunderground v.1.15,2013-04-14 00:05:00,
2013-04-13 20:10:00,70.0,48.3,29.91,SE,142,0.0,2.0,46,0.00,,,0.00,Wunderground v.1.15,2013-04-14 00:10:00,
2013-04-13 20:15:00,69.6,48.5,29.91,SE,142,0.0,2.0,47,0.00,,,0.00,Wunderground v.1.15,2013-04-14 00:15:00,
2013-04-13 20:20:00,69.1,48.0,29.91,SE,142,0.0,2.0,47,0.00,,,0.00,Wunderground v.1.15,2013-04-14 00:20:00,
2013-04-13 20:25:00,68.7,48.2,29.91,SE,142,0.0,2.0,48,0.00,,,0.00,Wunderground v.1.15,2013-04-14 00:25:00,
2013-04-13 20:30:00,68.3,48.4,29.91,SE,143,0.0,2.0,49,0.00,,,0.00,Wunderground v.1.15,2013-04-14 00:30:00,
2013-04-13 20:35:00,67.8,47.9,29.92,SE,142,0.0,2.0,49,0.00,,,0.00,Wunderground v.1.15,2013-04-14 00:35:00,
2013-04-13 20:40:00,67.4,48.1,29.92,SE,143,0.0,2.0,50,0.00,,,0.00,Wunderground v.1.15,2013-04-14 00:40:00,
2013-04-13 20:45:00,67.0,47.7,29.92,SE,143,0.0,2.0,50,0.00,,,0.00,Wunderground v.1.15,2013-04-14 00:45:00,
2013-04-13 20:50:00,66.7,48.5,29.92,SE,143,0.0,2.0,52,0.00,,,0.00,Wunderground v.1.15,2013-04-14 00:50:00,
2013-04-13 20:55:00,66.4,48.2,29.92,SE,142,0.0,2.0,52,0.00,,,0.00,Wunderground v.1.15,2013-04-14 00:55:00,
2013-04-13 21:05:00,65.9,48.3,29.93,SE,143,0.0,2.0,53,0.00,,,0.00,Wunderground v.1.15,2013-04-14 01:05:00,
2013-04-13 21:10:00,65.7,47.6,29.93,SE,143,0.0,2.0,52,0.00,,,0.00,Wunderground v.1.15,2013-04-14 01:10:00,
2013-04-13 21:15:00,65.4,47.3,29.93,SE,142,0.0,2.0,52,0.00,,,0.00,Wunderground v.1.15,2013-04-14 01:15:00,
2013-04-13 21:20:00,65.2,47.1,29.93,SE,143,0.0,2.0,52,0.00,,,0.00,Wunderground v.1.15,2013-04-14 01:20:00,
2013-04-13 21:25:00,65.0,46.9,29.94,SE,143,0.0,2.0,52,0.00,,,0.00,Wunderground v.1.15,2013-04-14 01:25:00,
2013-04-13 21:30:00,64.8,46.8,29.94,SE,142,0.0,2.0,52,0.00,,,0.00,Wunderground v.1.15,2013-04-14 01:30:00,
2013-04-13 21:35:00,64.7,46.1,29.94,SE,143,0.0,2.0,51,0.00,,,0.00,Wunderground v.1.15,2013-04-14 01:35:00,
2013-04-13 21:40:00,64.5,46.5,29.95,SE,143,0.0,2.0,52,0.00,,,0.00,Wunderground v.1.15,2013-04-14 01:40:00,
2013-04-13 21:45:00,64.3,46.3,29.95,SE,143,0.0,2.0,52,0.00,,,0.00,Wunderground v.1.15,2013-04-14 01:45:00,
2013-04-13 21:50:00,64.2,45.7,29.95,SE,143,0.0,2.0,51,0.00,,,0.00,Wunderground v.1.15,2013-04-14 01:50:00,
2013-04-13 21:55:00,64.0,46.0,29.95,SE,142,0.0,2.0,52,0.00,,,0.00,Wunderground v.1.15,2013-04-14 01:55:00,
2013-04-13 22:05:00,63.8,46.3,29.95,SE,143,0.0,2.0,53,0.00,,,0.00,Wunderground v.1.15,2013-04-14 02:05:00,
2013-04-13 22:10:00,63.6,46.1,29.95,SE,142,0.0,2.0,53,0.00,,,0.00,Wunderground v.1.15,2013-04-14 02:10:00,
2013-04-13 22:20:00,63.3,45.9,29.95,SE,143,0.0,2.0,53,0.00,,,0.00,Wunderground v.1.15,2013-04-14 02:20:00,
2013-04-13 22:25:00,63.2,45.8,29.95,SE,143,0.0,2.0,53,0.00,,,0.00,Wunderground v.1.15,2013-04-14 02:25:00,
2013-04-13 22:35:00,62.9,46.0,29.96,SE,143,0.0,2.0,54,0.00,,,0.00,Wunderground v.1.15,2013-04-14 02:35:00,
2013-04-13 22:40:00,62.7,45.3,29.96,SE,143,0.0,2.0,53,0.00,,,0.00,Wunderground v.1.15,2013-04-14 02:40:00,
2013-04-13 22:45:00,62.5,46.6,29.97,SE,143,0.0,2.0,56,0.00,,,0.00,Wunderground v.1.15,2013-04-14 02:45:00,
2013-04-13 22:50:00,62.2,45.8,29.97,SE,142,0.0,2.0,55,0.00,,,0.00,Wunderground v.1.15,2013-04-14 02:50:00,
2013-04-13 22:55:00,61.9,46.0,29.98,SE,143,0.0,2.0,56,0.00,,,0.00,Wunderground v.1.15,2013-04-14 02:55:00,
2013-04-13 23:00:00,61.7,46.8,29.98,SE,143,0.0,2.0,58,0.00,,,0.00,Wunderground v.1.15,2013-04-14 03:00:00,
2013-04-13 23:10:00,61.3,49.0,29.98,South,169,0.0,2.0,64,0.00,,,0.00,Wunderground v.1.15,2013-04-14 03:10:00,
2013-04-13 23:15:00,61.1,49.2,29.98,South,169,0.0,2.0,65,0.00,,,0.00,Wunderground v.1.15,2013-04-14 03:15:00,
2013-04-13 23:20:00,60.9,49.9,29.98,South,169,0.0,2.0,67,0.00,,,0.00,Wunderground v.1.15,2013-04-14 03:20:00,
2013-04-13 23:25:00,60.7,49.7,29.98,South,169,0.0,2.0,67,0.00,,,0.00,Wunderground v.1.15,2013-04-14 03:25:00,
2013-04-13 23:35:00,60.2,50.4,29.98,South,169,0.0,2.0,70,0.00,,,0.00,Wunderground v.1.15,2013-04-14 03:35:00,
2013-04-13 23:45:00,59.8,50.8,29.98,South,169,0.0,2.0,72,0.00,,,0.00,Wunderground v.1.15,2013-04-14 03:45:00,
2013-04-13 23:55:00,59.3,50.6,29.99,South,169,0.0,2.0,73,0.00,,,0.00,Wunderground v.1.15,2013-04-14 03:55:00,